EDT,Max TemperatureF,Mean TemperatureF,Min TemperatureF,Max Dew PointF,MeanDew PointF,Min DewpointF,Max Humidity, Mean Humidity, Min Humidity, Max Sea Level PressureIn, Mean Sea Level PressureIn, Min Sea Level PressureIn, Max VisibilityMiles, Mean VisibilityMiles, Min VisibilityMiles, Max Wind SpeedMPH, Mean Wind SpeedMPH, Max Gust SpeedMPH,PrecipitationIn, CloudCover, Events, WindDirDegrees
2013-10-1,80,62,46,59,51,46,100,88,42,30.01,29.96,29.87,10,5,0,10,0,17,0.01,2,Fog,236
2013-10-2,81,67,53,62,56,52,100,83,45,30.00,29.93,29.88,10,6,1,12,1,18,0.00,0,,295
2013-10-3,78,64,50,57,49,37,96,64,23,30.12,30.06,30.01,10,10,9,7,1,,0.01,0,,276
2013-10-4,71,62,55,60,56,52,96,82,68,30.07,30.05,30.02,10,10,6,10,3,,0.00,4,,15
2013-10-5,75,66,60,64,60,57,90,83,64,30.11,30.07,30.04,10,10,8,7,4,,0.00,6,,39
2013-10-6,64,60,57,62,59,55,100,93,88,30.18,30.13,30.08,10,6,2,9,3,,1.11,8,Rain,76
2013-10-7,77,68,59,69,62,55,100,89,74,30.08,29.92,29.78,10,6,1,23,6,36,0.55,8,Rain,217
2013-10-8,68,58,50,52,44,38,83,61,36,30.36,30.20,29.97,10,10,10,10,4,,0.00,0,,358
2013-10-9,64,54,44,45,43,40,93,69,41,30.46,30.39,30.35,10,10,10,9,6,,0.00,0,,30
2013-10-10,57,52,46,49,47,44,93,80,67,30.35,30.26,30.15,10,10,9,13,8,16,0.00,1,,8
2013-10-11,72,61,51,57,51,45,89,72,59,30.14,30.11,30.06,10,10,9,13,7,,0.00,2,,15
2013-10-12,70,58,48,55,51,45,90,74,57,30.36,30.25,30.13,10,10,10,17,8,23,0.00,4,,34
2013-10-13,61,56,50,50,47,46,86,74,59,30.43,30.39,30.34,10,10,10,9,7,,0.00,5,,42
2013-10-14,64,52,41,49,44,39,100,84,48,30.40,30.34,30.25,10,7,0,7,0,,0.00,0,Fog,168
2013-10-15,73,61,50,52,49,45,92,71,44,30.27,30.21,30.14,10,10,10,8,2,,0.00,4,,151
2013-10-16,62,56,50,54,50,47,94,82,64,30.14,30.04,29.92,10,10,10,5,1,,0.00,5,,16
2013-10-17,73,64,55,61,58,52,94,85,64,29.91,29.83,29.70,10,9,5,9,3,,0.04,6,Rain,166
2013-10-18,68,60,50,61,50,40,93,67,37,29.95,29.78,29.63,10,10,8,12,7,23,0.00,3,Rain,257
2013-10-19,66,54,43,50,44,38,97,70,37,29.99,29.90,29.75,10,10,8,9,2,20,0.01,2,Rain,175
2013-10-20,63,54,45,53,40,31,93,60,31,30.05,29.88,29.73,10,9,3,13,4,18,0.06,1,Rain,275
2013-10-21,66,52,39,45,40,36,96,66,32,30.14,30.06,29.99,10,10,10,10,3,,0.00,0,,181
2013-10-22,66,54,42,52,44,39,100,84,48,29.98,29.86,29.73,10,6,0,13,1,20,0.01,3,Fog-Rain,250
2013-10-23,50,44,37,40,36,32,96,73,50,29.81,29.72,29.62,10,9,2,8,2,,0.00,4,Rain,352
2013-10-24,54,46,37,34,29,23,83,53,31,29.94,29.84,29.71,10,10,10,13,6,21,0.00,2,,264
2013-10-25,51,42,33,34,29,25,93,62,39,30.19,30.08,29.95,10,10,10,16,4,23,0.00,2,,310
2013-10-26,55,43,32,34,30,25,92,61,33,30.19,30.06,29.89,10,10,10,16,5,28,0.00,1,,192
2013-10-27,57,48,37,38,32,26,86,54,33,30.11,29.93,29.83,10,10,10,12,5,20,0.00,3,Rain,258
2013-10-28,61,46,33,34,32,30,96,61,33,30.35,30.19,30.11,10,10,10,13,5,22,0.00,1,,281
2013-10-29,50,43,36,31,27,22,82,57,35,30.47,30.40,30.37,10,10,10,9,5,,0.00,4,,24
2013-10-30,55,45,35,45,37,29,96,77,50,30.36,30.27,30.20,10,9,2,6,1,,0.00,6,,89
2013-10-31,64,50,37,58,43,36,97,91,78,30.25,30.15,29.80,10,4,0,10,1,,0.09,6,Fog-Rain,164